KFMN

Four Corners Regional Airport

Farmington, New Mexico, USA
KFMN 221136Z 2212/2312 28016G26KT P6SM SCT005 BKN070 FM222100 30016G26KT P6SM SCT070 FM230200 29015KT P6SM FEW250
Issued Valid From Valid To
Jan-22 @ 11:36 UTC
(5 hours ago)
Jan-22 @ 12:00 UTC
(5 hours ago)
Jan-23 @ 12:00 UTC
(in 19 hours)
Jan-22 @ 12:00 to Jan-22 @ 21:00
KFMN 221136Z 2212/2312 28016G26KT P6SM SCT005 BKN070
Wind Visibility Clouds
280° at 16 knots
 Gusting to 26 knots
Greater than 6 miles
  • Scattered at 500' AGL
  • Broken at 7,000' AGL
From Jan-22 @ 21:00 to Jan-23 @ 02:00
FM222100 30016G26KT P6SM SCT070
Wind Visibility Clouds
300° at 16 knots
 Gusting to 26 knots
Greater than 6 miles
  • Scattered at 7,000' AGL
From Jan-23 @ 02:00 to Jan-23 @ 12:00
FM230200 29015KT P6SM FEW250
Wind Visibility Clouds
290° at 15 knots Greater than 6 miles
  • Few at 25,000' AGL
KFMN 221136Z 2212/2312 28016G26KT P6SM SCT005 BKN070 FM222100 30016G26KT P6SM SCT070 FM230200 29015KT P6SM FEW250
Issued Jan-22 @ 11:36 UTC
(5 hours ago)
Valid From Jan-22 @ 12:00 UTC
(5 hours ago)
Valid To Jan-23 @ 12:00 UTC
(in 19 hours)
Jan-22 @ 12:00 - Jan-22 @ 21:00
Wind Visibility
280° at 16 knots
 Gusting to 26 knots
Greater than 6 miles
Clouds
  • Scattered at 500' AGL
  • Broken at 7,000' AGL
From Jan-22 @ 21:00 - Jan-23 @ 02:00
Wind Visibility
300° at 16 knots
 Gusting to 26 knots
Greater than 6 miles
Clouds
  • Scattered at 7,000' AGL
From Jan-23 @ 02:00 - Jan-23 @ 12:00
Wind Visibility
290° at 15 knots Greater than 6 miles
Clouds
  • Few at 25,000' AGL